Time;durP1;ratioP1;P1;durP2;ratioP2;P2;SDS_P1;SDS_P2;PMS_P1;PMS_P2;Temp;Humidity;BMP_temperature;BMP_pressure;BME280_temperature;BME280_humidity;BME280_pressure;Samples;Min_cycle;Max_cycle;Signal;HPM_P1;HPM_P2
2024/01/18 00:00:56;;;;;;;2.20;1.53;;;11.00;98.00;;;;;;5031789;28;20464;-68
2024/01/18 00:03:25;;;;;;;2.00;1.40;;;11.00;98.00;;;;;;5030462;28;20857;-68
2024/01/18 00:05:52;;;;;;;1.40;1.30;;;11.00;98.00;;;;;;5031866;28;20461;-68
2024/01/18 00:08:19;;;;;;;1.73;1.30;;;11.10;98.00;;;;;;5031785;28;20464;-68
2024/01/18 00:10:46;;;;;;;1.80;1.30;;;11.10;98.00;;;;;;5031593;28;20831;-68
2024/01/18 00:13:13;;;;;;;1.30;1.20;;;11.10;98.00;;;;;;5030680;28;20462;-68
2024/01/18 00:15:40;;;;;;;1.70;1.30;;;11.10;98.00;;;;;;5031563;28;20957;-68
2024/01/18 00:18:10;;;;;;;1.43;1.27;;;11.10;98.00;;;;;;5031981;28;20454;-68
2024/01/18 00:20:38;;;;;;;1.70;1.30;;;11.10;98.00;;;;;;5031631;28;20453;-68
2024/01/18 00:23:05;;;;;;;1.50;1.20;;;11.10;98.00;;;;;;5031594;28;20455;-68
2024/01/18 00:25:32;;;;;;;1.40;1.23;;;11.10;98.00;;;;;;5030271;28;20469;-68
2024/01/18 00:27:59;;;;;;;1.47;1.40;;;11.10;98.00;;;;;;5031759;28;20466;-68
2024/01/18 00:30:27;;;;;;;1.50;1.27;;;11.10;98.00;;;;;;5031587;28;20482;-68
2024/01/18 00:32:56;;;;;;;1.70;1.40;;;11.10;98.00;;;;;;5030806;28;20520;-68
2024/01/18 00:35:23;;;;;;;3.00;1.40;;;11.10;98.00;;;;;;5425089;22;20496;-68
2024/01/18 00:37:51;;;;;;;1.43;1.30;;;11.10;98.00;;;;;;5009896;28;20811;-67
2024/01/18 00:40:18;;;;;;;2.47;1.60;;;11.10;98.00;;;;;;5011216;28;20802;-67
2024/01/18 00:42:45;;;;;;;1.80;1.40;;;11.10;98.00;;;;;;5010938;28;20869;-68
2024/01/18 00:45:12;;;;;;;1.47;1.37;;;11.10;98.00;;;;;;5010024;28;20940;-68
2024/01/18 00:47:40;;;;;;;1.87;1.60;;;11.10;98.00;;;;;;5010569;28;20462;-67
2024/01/18 00:50:15;;;;;;;1.63;1.30;;;11.10;98.00;;;;;;5010045;28;20487;-68
2024/01/18 00:52:42;;;;;;;1.90;1.43;;;11.10;98.00;;;;;;5011351;28;20818;-68
2024/01/18 00:55:52;;;;;;;1.20;1.20;;;11.10;98.00;;;;;;5011332;28;20831;-68
2024/01/18 00:58:19;;;;;;;1.80;1.40;;;11.10;98.00;;;;;;5014929;28;20466;-67
2024/01/18 01:00:47;;;;;;;2.97;1.30;;;11.10;98.00;;;;;;5013424;28;20957;-67
2024/01/18 01:03:14;;;;;;;1.87;1.47;;;11.10;98.00;;;;;;5014588;28;20505;-68
2024/01/18 01:05:41;;;;;;;1.93;1.30;;;11.10;98.00;;;;;;5014713;28;20443;-68
2024/01/18 01:08:08;;;;;;;2.40;1.30;;;11.10;98.00;;;;;;5013034;28;20469;-67
2024/01/18 01:10:35;;;;;;;1.43;1.30;;;11.00;98.00;;;;;;5014502;28;21013;-68
2024/01/18 01:13:04;;;;;;;2.23;1.30;;;11.00;98.00;;;;;;5013227;28;20863;-67
2024/01/18 01:15:31;;;;;;;1.83;1.37;;;11.00;98.00;;;;;;5013716;28;20453;-69
2024/01/18 01:17:58;;;;;;;2.40;1.40;;;11.00;98.00;;;;;;5014203;28;20458;-67
2024/01/18 01:20:25;;;;;;;1.47;1.33;;;11.00;98.00;;;;;;5014149;28;20455;-67
2024/01/18 01:22:52;;;;;;;1.73;1.40;;;11.00;98.00;;;;;;5014165;28;20455;-67
2024/01/18 01:25:19;;;;;;;2.20;1.53;;;11.00;98.00;;;;;;5014077;28;20462;-69
2024/01/18 01:27:46;;;;;;;1.37;1.17;;;11.00;98.00;;;;;;5012898;28;20459;-67
2024/01/18 01:30:15;;;;;;;1.87;1.57;;;11.00;98.00;;;;;;5013670;28;20954;-67
2024/01/18 01:32:42;;;;;;;1.80;1.30;;;11.00;98.00;;;;;;5013925;28;20456;-68
2024/01/18 01:35:09;;;;;;;2.43;1.80;;;11.00;98.00;;;;;;5013605;28;20524;-67
2024/01/18 01:37:37;;;;;;;1.60;1.30;;;11.00;98.00;;;;;;5013743;28;20443;-67
2024/01/18 01:40:06;;;;;;;1.50;1.30;;;11.00;98.00;;;;;;5012975;28;20451;-67
2024/01/18 01:42:33;;;;;;;6.53;1.30;;;11.00;98.00;;;;;;5013903;28;20449;-67
2024/01/18 01:45:00;;;;;;;1.53;1.30;;;11.00;98.00;;;;;;5013429;28;20460;-67
2024/01/18 01:47:28;;;;;;;1.50;1.30;;;11.00;98.00;;;;;;5013646;28;20457;-67
2024/01/18 01:49:55;;;;;;;1.73;1.30;;;11.10;98.00;;;;;;5013906;28;20454;-67
2024/01/18 01:52:23;;;;;;;1.33;1.13;;;11.00;98.00;;;;;;5013586;28;20499;-67
2024/01/18 01:54:50;;;;;;;2.20;1.30;;;11.00;98.00;;;;;;5013693;28;20955;-67
2024/01/18 01:57:20;;;;;;;1.57;1.30;;;11.00;98.00;;;;;;5013468;28;20464;-67
2024/01/18 01:59:48;;;;;;;1.50;1.30;;;11.00;98.00;;;;;;5013206;28;20461;-68
2024/01/18 02:02:29;;;;;;;1.30;1.27;;;11.00;98.00;;;;;;5013655;28;20861;-68
2024/01/18 02:04:58;;;;;;;1.47;1.20;;;10.90;98.00;;;;;;5013453;28;20944;-67
2024/01/18 02:07:28;;;;;;;2.00;1.30;;;10.90;98.00;;;;;;5013089;28;20457;-69
2024/01/18 02:09:56;;;;;;;1.80;1.53;;;10.90;98.00;;;;;;5014564;28;20464;-67
2024/01/18 02:12:25;;;;;;;2.03;1.60;;;11.00;98.00;;;;;;5012965;28;20522;-67
2024/01/18 02:14:52;;;;;;;1.30;1.20;;;10.90;98.00;;;;;;5013204;28;20494;-68
2024/01/18 02:17:19;;;;;;;1.43;1.27;;;10.90;98.00;;;;;;5013511;28;20969;-68
2024/01/18 02:19:47;;;;;;;1.57;1.20;;;10.90;98.00;;;;;;5013235;28;20459;-67
2024/01/18 02:22:18;;;;;;;3.67;1.37;;;10.90;98.00;;;;;;5013275;28;20490;-67
2024/01/18 02:24:51;;;;;;;3.00;1.47;;;10.90;98.00;;;;;;5013159;28;20465;-68
2024/01/18 02:27:20;;;;;;;1.40;1.30;;;10.90;98.00;;;;;;5011746;28;20493;-68
2024/01/18 02:29:49;;;;;;;1.60;1.20;;;10.90;98.00;;;;;;5013016;28;20457;-67
2024/01/18 02:32:16;;;;;;;1.70;1.40;;;10.90;98.00;;;;;;5013011;28;20486;-67
2024/01/18 02:34:43;;;;;;;2.07;1.40;;;10.90;98.00;;;;;;5012859;28;20463;-67
2024/01/18 02:37:12;;;;;;;1.40;1.30;;;10.90;98.00;;;;;;5012735;28;20453;-68
2024/01/18 02:39:39;;;;;;;2.63;1.30;;;10.80;98.00;;;;;;5011697;28;20457;-68
2024/01/18 02:42:07;;;;;;;1.40;1.30;;;10.90;98.00;;;;;;5012938;28;20450;-67
2024/01/18 02:44:37;;;;;;;2.30;1.40;;;10.90;98.00;;;;;;5013189;28;20477;-67
2024/01/18 02:47:05;;;;;;;1.40;1.30;;;10.90;98.00;;;;;;5012949;28;20448;-67
2024/01/18 02:49:36;;;;;;;2.47;1.60;;;11.00;98.00;;;;;;5012546;28;20465;-67
2024/01/18 02:52:03;;;;;;;1.60;1.33;;;11.00;98.00;;;;;;5012696;28;20494;-67
2024/01/18 02:54:30;;;;;;;2.57;1.40;;;11.00;98.00;;;;;;5012593;28;20469;-67
2024/01/18 02:56:57;;;;;;;1.93;1.40;;;11.00;98.00;;;;;;5012339;28;20455;-69
2024/01/18 02:59:24;;;;;;;1.77;1.50;;;11.00;98.00;;;;;;5012470;28;20464;-67
2024/01/18 03:01:52;;;;;;;1.40;1.27;;;11.00;98.00;;;;;;5012318;28;20468;-67
2024/01/18 03:04:20;;;;;;;1.40;1.20;;;11.00;98.00;;;;;;5012235;28;20466;-66
2024/01/18 03:06:47;;;;;;;1.60;1.20;;;11.00;98.00;;;;;;4995239;28;20531;-67
2024/01/18 03:09:18;;;;;;;1.80;1.20;;;11.00;98.00;;;;;;5011918;28;20454;-67
2024/01/18 03:11:45;;;;;;;2.47;1.50;;;10.90;98.00;;;;;;5011184;28;21078;-68
2024/01/18 03:14:13;;;;;;;2.53;1.60;;;10.90;98.00;;;;;;5012306;28;20948;-68
2024/01/18 03:16:42;;;;;;;1.70;1.40;;;10.80;98.00;;;;;;5011921;28;20447;-67
2024/01/18 03:19:11;;;;;;;2.23;1.40;;;10.70;98.00;;;;;;5011698;28;20861;-67
2024/01/18 03:21:38;;;;;;;1.70;1.40;;;10.70;98.00;;;;;;5012031;28;20974;-67
2024/01/18 03:24:06;;;;;;;2.13;1.30;;;10.60;98.00;;;;;;5011584;28;20451;-67
2024/01/18 03:26:34;;;;;;;2.87;1.37;;;10.60;98.00;;;;;;5011973;28;20447;-69
2024/01/18 03:29:01;;;;;;;1.67;1.40;;;10.60;98.00;;;;;;5010747;28;20445;-69
2024/01/18 03:31:29;;;;;;;1.30;1.30;;;10.50;98.00;;;;;;5012114;28;20894;-68
2024/01/18 03:33:56;;;;;;;3.10;1.40;;;10.40;98.00;;;;;;5010680;28;20486;-67
2024/01/18 03:36:25;;;;;;;1.50;1.47;;;10.40;98.00;;;;;;5011720;28;20482;-69
2024/01/18 03:38:52;;;;;;;2.27;1.67;;;10.30;98.00;;;;;;5011719;28;20449;-68
2024/01/18 03:41:19;;;;;;;1.73;1.30;;;10.30;98.00;;;;;;5011733;28;20825;-68
2024/01/18 03:43:46;;;;;;;2.40;1.30;;;10.20;98.00;;;;;;5011441;28;20861;-67
2024/01/18 03:46:14;;;;;;;1.60;1.40;;;10.20;98.00;;;;;;5011674;28;20459;-67
2024/01/18 03:48:42;;;;;;;3.10;1.30;;;10.20;98.00;;;;;;5011458;28;20534;-67
2024/01/18 03:51:09;;;;;;;1.50;1.30;;;10.20;98.00;;;;;;5010329;28;20861;-67
2024/01/18 03:53:45;;;;;;;1.63;1.30;;;10.30;98.00;;;;;;5011040;28;20876;-67
2024/01/18 03:56:13;;;;;;;1.20;1.20;;;10.20;98.00;;;;;;5011479;28;20454;-67
2024/01/18 03:58:42;;;;;;;1.60;1.40;;;10.20;98.00;;;;;;5010336;28;20954;-68
2024/01/18 04:01:09;;;;;;;1.50;1.30;;;10.20;98.00;;;;;;5011437;28;20455;-67
2024/01/18 04:03:36;;;;;;;2.87;1.40;;;10.20;98.00;;;;;;5011408;28;20456;-67
2024/01/18 04:06:04;;;;;;;2.47;1.27;;;10.30;98.00;;;;;;5009846;28;20480;-69
2024/01/18 04:08:31;;;;;;;2.23;1.43;;;10.30;98.00;;;;;;5011206;28;20877;-67
2024/01/18 04:11:02;;;;;;;1.67;1.30;;;10.30;98.00;;;;;;5011440;28;20454;-69
2024/01/18 04:13:29;;;;;;;1.63;1.40;;;10.30;98.00;;;;;;5011456;28;20454;-68
2024/01/18 04:15:56;;;;;;;1.93;1.50;;;10.30;98.00;;;;;;5010974;28;20526;-68
2024/01/18 04:18:23;;;;;;;4.70;1.80;;;10.30;98.00;;;;;;5011282;28;20454;-67
2024/01/18 04:20:52;;;;;;;2.40;1.60;;;10.20;98.00;;;;;;5011282;28;20459;-68
2024/01/18 04:23:20;;;;;;;3.63;1.50;;;10.20;98.00;;;;;;5011465;28;20536;-68
2024/01/18 04:25:51;;;;;;;2.30;1.40;;;10.20;98.00;;;;;;5010283;28;20976;-67
2024/01/18 04:28:20;;;;;;;5.80;1.20;;;10.20;98.00;;;;;;5011523;28;20460;-68
2024/01/18 04:30:47;;;;;;;1.37;1.27;;;10.20;98.00;;;;;;5011483;28;20828;-67
2024/01/18 04:33:14;;;;;;;1.77;1.40;;;10.20;98.00;;;;;;5015399;28;20483;-67
2024/01/18 04:35:41;;;;;;;1.40;1.30;;;10.20;98.00;;;;;;5013597;28;20463;-67
2024/01/18 04:38:08;;;;;;;2.40;1.60;;;10.10;98.00;;;;;;5015558;28;20447;-67
2024/01/18 04:40:35;;;;;;;1.43;1.33;;;10.10;98.00;;;;;;5015169;28;20464;-68
2024/01/18 04:43:03;;;;;;;1.70;1.30;;;10.10;98.00;;;;;;5015009;28;20470;-68
2024/01/18 04:45:31;;;;;;;1.60;1.40;;;10.00;98.00;;;;;;5013601;28;20461;-68
2024/01/18 04:47:59;;;;;;;1.70;1.30;;;10.00;98.00;;;;;;5013557;28;20453;-67
2024/01/18 04:50:26;;;;;;;4.90;1.47;;;10.00;98.00;;;;;;5015009;28;20884;-67
2024/01/18 04:52:53;;;;;;;3.10;1.50;;;10.00;98.00;;;;;;5013480;28;20481;-67
2024/01/18 04:55:43;;;;;;;2.03;1.40;;;9.90;98.00;;;;;;5014603;28;20460;-67
2024/01/18 04:58:10;;;;;;;6.47;1.40;;;9.90;98.00;;;;;;4999978;28;20481;-68
2024/01/18 05:00:39;;;;;;;1.60;1.37;;;9.80;98.00;;;;;;5014509;28;20451;-67
2024/01/18 05:03:07;;;;;;;1.50;1.30;;;9.80;98.00;;;;;;5014574;28;20462;-67
2024/01/18 05:05:34;;;;;;;1.60;1.43;;;9.80;98.00;;;;;;5014199;28;20450;-67
2024/01/18 05:08:02;;;;;;;2.03;1.80;;;9.80;98.00;;;;;;5013434;28;20965;-67
2024/01/18 05:10:29;;;;;;;5.47;2.97;;;9.90;98.00;;;;;;5012783;28;20479;-69
2024/01/18 05:12:56;;;;;;;6.70;3.60;;;9.90;98.00;;;;;;5014373;28;20514;-67
2024/01/18 05:15:24;;;;;;;9.00;4.30;;;10.00;98.00;;;;;;5012708;28;20484;-69
2024/01/18 05:17:55;;;;;;;7.20;4.20;;;9.90;98.00;;;;;;5014529;28;20476;-67
2024/01/18 05:20:22;;;;;;;12.13;4.80;;;9.60;98.00;;;;;;5014430;28;20507;-67
2024/01/18 05:22:49;;;;;;;6.90;4.20;;;9.40;98.00;;;;;;5013074;28;20459;-66
2024/01/18 05:25:16;;;;;;;9.40;4.53;;;9.50;98.00;;;;;;5014254;28;20453;-67
2024/01/18 05:27:43;;;;;;;8.70;4.33;;;9.40;98.00;;;;;;5013800;28;20973;-67
2024/01/18 05:30:12;;;;;;;10.60;5.20;;;9.30;98.00;;;;;;5013882;28;20449;-68
2024/01/18 05:32:39;;;;;;;13.73;5.50;;;9.20;98.00;;;;;;5014169;28;20830;-67
2024/01/18 05:35:08;;;;;;;11.63;5.50;;;9.10;98.00;;;;;;5013753;28;20466;-67
2024/01/18 05:37:35;;;;;;;10.43;5.53;;;8.90;98.00;;;;;;5013762;28;20882;-67
2024/01/18 05:40:03;;;;;;;10.50;6.00;;;8.80;98.00;;;;;;5013564;28;20452;-67
2024/01/18 05:42:30;;;;;;;11.73;6.17;;;8.90;98.00;;;;;;5020101;28;20468;-68
2024/01/18 05:45:00;;;;;;;17.20;6.93;;;9.10;98.00;;;;;;5031313;28;20462;-66
2024/01/18 05:47:27;;;;;;;11.03;5.30;;;9.10;98.00;;;;;;5031118;28;20963;-67
2024/01/18 05:49:54;;;;;;;12.73;6.27;;;8.80;98.00;;;;;;5031729;28;20458;-68
2024/01/18 05:52:23;;;;;;;11.63;6.30;;;8.60;98.00;;;;;;5033401;28;20486;-67
2024/01/18 05:54:50;;;;;;;15.67;7.00;;;8.70;98.00;;;;;;5032345;28;20541;-68
2024/01/18 05:57:17;;;;;;;13.07;6.10;;;8.70;98.00;;;;;;5032692;28;20454;-68
2024/01/18 05:59:45;;;;;;;15.40;6.20;;;8.60;98.00;;;;;;5033245;28;20458;-67
2024/01/18 06:02:12;;;;;;;13.90;6.33;;;8.60;98.00;;;;;;5032245;28;20846;-67
2024/01/18 06:04:40;;;;;;;14.20;6.73;;;8.60;98.00;;;;;;5033238;28;20446;-66
2024/01/18 06:07:07;;;;;;;13.53;5.87;;;8.50;98.00;;;;;;5034218;28;20477;-66
2024/01/18 06:09:36;;;;;;;13.50;6.67;;;8.60;98.00;;;;;;5033884;28;20454;-67
2024/01/18 06:12:04;;;;;;;15.30;6.60;;;8.40;98.00;;;;;;5034272;28;20488;-67
2024/01/18 06:14:31;;;;;;;15.40;6.27;;;8.30;98.00;;;;;;5034176;28;20459;-67
2024/01/18 06:16:58;;;;;;;12.50;6.47;;;8.20;98.00;;;;;;5034273;28;20468;-67
2024/01/18 06:19:25;;;;;;;16.40;7.13;;;8.10;98.00;;;;;;5033791;28;20447;-68
2024/01/18 06:21:52;;;;;;;17.60;7.50;;;8.00;98.00;;;;;;5033586;28;20460;-67
2024/01/18 06:24:20;;;;;;;15.03;7.00;;;7.90;98.00;;;;;;5033596;28;20453;-68
2024/01/18 06:26:49;;;;;;;14.70;6.77;;;8.00;98.00;;;;;;5033004;28;20789;-67
2024/01/18 06:29:18;;;;;;;18.77;6.80;;;7.80;98.00;;;;;;5033753;28;20469;-67
2024/01/18 06:31:45;;;;;;;15.73;7.17;;;7.90;98.00;;;;;;5033462;28;20464;-67
2024/01/18 06:34:12;;;;;;;13.00;6.03;;;7.70;98.00;;;;;;5032631;28;20452;-70
2024/01/18 06:36:39;;;;;;;15.00;6.70;;;7.60;98.00;;;;;;5033146;28;20464;-70
2024/01/18 06:39:07;;;;;;;15.00;6.03;;;7.60;98.00;;;;;;5032990;28;20459;-70
2024/01/18 06:41:35;;;;;;;15.30;5.87;;;7.70;98.00;;;;;;5033174;28;20453;-69
2024/01/18 06:44:05;;;;;;;10.60;5.43;;;7.70;98.00;;;;;;5032479;28;20469;-70
2024/01/18 06:46:34;;;;;;;9.93;4.20;;;7.60;98.00;;;;;;5033333;28;20822;-70
2024/01/18 06:49:01;;;;;;;7.67;3.80;;;7.40;98.00;;;;;;5033218;28;20482;-71
2024/01/18 06:51:29;;;;;;;10.20;4.13;;;7.20;98.00;;;;;;5033202;28;20517;-71
2024/01/18 06:53:56;;;;;;;7.23;3.90;;;7.10;98.00;;;;;;5032547;28;20587;-71
2024/01/18 06:56:23;;;;;;;7.63;4.00;;;7.00;98.00;;;;;;5032101;28;20788;-71
2024/01/18 06:58:51;;;;;;;6.90;4.20;;;7.00;98.00;;;;;;5032998;28;20456;-70
2024/01/18 07:01:19;;;;;;;7.87;3.90;;;6.80;98.00;;;;;;5032912;28;20828;-68
2024/01/18 07:03:47;;;;;;;7.70;4.07;;;6.80;98.00;;;;;;5032469;28;20516;-69
2024/01/18 07:06:14;;;;;;;10.10;4.00;;;6.80;98.00;;;;;;5032124;28;20502;-69
2024/01/18 07:08:42;;;;;;;9.33;3.87;;;6.80;98.00;;;;;;5031774;28;20458;-68
2024/01/18 07:11:09;;;;;;;8.63;3.70;;;6.80;98.00;;;;;;5032481;28;20459;-69
2024/01/18 07:13:36;;;;;;;5.10;3.13;;;6.80;98.00;;;;;;5032445;28;20478;-69
2024/01/18 07:16:04;;;;;;;5.40;3.00;;;6.60;98.00;;;;;;5032468;28;20940;-68
2024/01/18 07:18:32;;;;;;;5.80;3.00;;;6.40;98.00;;;;;;5031491;28;20823;-68
2024/01/18 07:21:00;;;;;;;5.30;3.20;;;6.30;98.00;;;;;;5032680;28;20462;-68
2024/01/18 07:23:27;;;;;;;7.70;3.23;;;6.20;98.00;;;;;;5032430;28;21059;-68
2024/01/18 07:25:55;;;;;;;5.20;2.93;;;6.30;98.00;;;;;;5031304;28;20483;-68
2024/01/18 07:28:22;;;;;;;4.87;3.00;;;6.40;98.00;;;;;;5032319;28;20456;-68
2024/01/18 07:30:49;;;;;;;5.03;3.20;;;6.40;98.00;;;;;;5032360;28;20461;-68
2024/01/18 07:33:16;;;;;;;5.90;3.10;;;6.40;98.00;;;;;;5032475;28;20493;-69
2024/01/18 07:35:45;;;;;;;5.30;3.20;;;6.40;98.00;;;;;;5032030;28;20459;-69
2024/01/18 07:38:13;;;;;;;4.57;2.90;;;6.30;98.00;;;;;;5032249;28;20805;-68
2024/01/18 07:40:41;;;;;;;6.30;3.20;;;6.40;98.00;;;;;;5032372;28;20499;-68
2024/01/18 07:43:08;;;;;;;5.60;3.30;;;6.40;98.00;;;;;;5032370;28;20447;-68
2024/01/18 07:45:35;;;;;;;7.00;3.50;;;6.40;98.00;;;;;;5032260;28;20950;-68
2024/01/18 07:48:02;;;;;;;4.63;3.00;;;6.30;98.00;;;;;;5031233;28;20454;-68
2024/01/18 07:50:29;;;;;;;7.37;3.63;;;6.00;98.00;;;;;;5031312;28;20456;-68
2024/01/18 07:52:58;;;;;;;6.30;3.70;;;5.80;98.00;;;;;;5031925;28;20559;-69
2024/01/18 07:55:26;;;;;;;6.33;3.10;;;5.70;98.00;;;;;;5032042;28;20550;-68
2024/01/18 07:57:53;;;;;;;8.40;3.67;;;5.80;98.00;;;;;;5032124;28;20446;-66
2024/01/18 08:00:21;;;;;;;4.77;3.37;;;5.70;98.00;;;;;;5032277;28;20474;-66
2024/01/18 08:02:48;;;;;;;5.73;3.30;;;5.70;98.00;;;;;;5032273;28;20451;-66
2024/01/18 08:05:15;;;;;;;5.80;3.30;;;5.80;98.00;;;;;;5032216;28;20562;-66
2024/01/18 08:07:42;;;;;;;5.30;3.00;;;5.70;98.00;;;;;;5032363;28;20854;-66
2024/01/18 08:10:11;;;;;;;4.00;2.90;;;5.90;98.00;;;;;;5032079;28;20443;-66
2024/01/18 08:12:38;;;;;;;6.93;3.40;;;5.90;98.00;;;;;;5031793;28;20491;-66
2024/01/18 08:15:06;;;;;;;7.13;3.40;;;5.70;98.00;;;;;;5031948;28;20471;-66
2024/01/18 08:17:33;;;;;;;7.20;3.50;;;5.70;98.00;;;;;;5030302;28;20931;-66
2024/01/18 08:20:00;;;;;;;7.03;3.80;;;5.70;98.00;;;;;;5031428;28;20868;-66
2024/01/18 08:22:27;;;;;;;9.77;3.77;;;5.80;98.00;;;;;;5031827;28;20463;-66
2024/01/18 08:24:56;;;;;;;6.07;3.47;;;5.90;98.00;;;;;;5030785;28;20857;-66
2024/01/18 08:27:25;;;;;;;8.57;3.80;;;5.90;98.00;;;;;;5031872;28;20466;-66
2024/01/18 08:29:52;;;;;;;5.40;3.03;;;5.80;98.00;;;;;;5031329;28;20511;-66
2024/01/18 08:32:19;;;;;;;8.40;3.70;;;5.70;98.00;;;;;;5031815;28;20455;-66
2024/01/18 08:34:46;;;;;;;5.10;3.17;;;5.70;98.00;;;;;;5030260;28;20465;-66
2024/01/18 08:37:14;;;;;;;5.17;3.20;;;5.60;98.00;;;;;;5031698;28;20465;-66
2024/01/18 08:39:41;;;;;;;9.50;3.60;;;5.60;98.00;;;;;;5030428;28;20517;-66
2024/01/18 08:42:08;;;;;;;5.30;3.33;;;5.50;98.00;;;;;;5031326;28;20455;-66
2024/01/18 08:44:36;;;;;;;6.37;3.47;;;5.30;98.00;;;;;;5014293;28;20458;-66
2024/01/18 08:47:04;;;;;;;6.13;3.03;;;5.30;98.00;;;;;;5012014;28;20525;-65
2024/01/18 08:49:31;;;;;;;8.30;3.60;;;5.20;98.00;;;;;;5012257;28;20961;-65
2024/01/18 08:51:59;;;;;;;5.77;3.33;;;5.40;98.00;;;;;;5025232;28;20453;-68
2024/01/18 08:54:26;;;;;;;5.97;3.27;;;5.30;98.00;;;;;;5031300;28;20482;-68
2024/01/18 08:56:53;;;;;;;8.13;3.50;;;5.20;98.00;;;;;;5016743;28;20468;-67
2024/01/18 08:59:20;;;;;;;6.03;2.87;;;5.10;98.00;;;;;;5020057;28;20454;-68
2024/01/18 09:01:49;;;;;;;4.57;2.90;;;4.80;98.00;;;;;;5015784;28;20530;-68
2024/01/18 09:04:16;;;;;;;5.90;2.83;;;4.50;98.00;;;;;;5011334;28;20454;-68
2024/01/18 09:06:43;;;;;;;4.50;2.20;;;4.50;98.00;;;;;;5010154;28;20478;-65
2024/01/18 09:09:11;;;;;;;3.80;2.27;;;4.50;98.00;;;;;;5011526;28;20949;-67
2024/01/18 09:11:38;;;;;;;4.00;2.30;;;4.40;98.00;;;;;;5011245;28;20453;-68
2024/01/18 09:14:08;;;;;;;3.17;2.20;;;4.40;98.00;;;;;;5011536;28;20490;-68
2024/01/18 09:16:35;;;;;;;2.77;2.23;;;4.30;98.00;;;;;;5011270;28;20448;-68
2024/01/18 09:19:04;;;;;;;3.20;2.20;;;4.20;98.00;;;;;;5014776;28;20465;-68
2024/01/18 09:21:31;;;;;;;3.27;2.30;;;4.20;98.00;;;;;;5014358;28;20499;-68
2024/01/18 09:23:58;;;;;;;3.70;2.40;;;4.40;98.00;;;;;;5014877;28;20453;-67
2024/01/18 09:26:25;;;;;;;4.73;2.90;;;4.40;98.00;;;;;;5014842;28;20464;-62
2024/01/18 09:28:52;;;;;;;4.00;2.60;;;4.30;98.00;;;;;;5013588;28;20456;-65
2024/01/18 09:31:21;;;;;;;4.37;2.70;;;4.20;98.00;;;;;;5013664;28;20474;-69
2024/01/18 09:33:49;;;;;;;3.60;2.50;;;4.20;98.00;;;;;;5014639;28;20499;-68
2024/01/18 09:36:18;;;;;;;4.93;3.13;;;4.20;98.00;;;;;;5014653;28;20487;-68
2024/01/18 09:38:46;;;;;;;5.00;2.73;;;4.00;98.00;;;;;;5014723;28;21014;-68
2024/01/18 09:41:18;;;;;;;5.10;2.60;;;4.00;98.00;;;;;;5014743;28;20452;-68
2024/01/18 09:43:46;;;;;;;5.20;2.67;;;3.90;98.00;;;;;;5015000;28;20455;-68
2024/01/18 09:46:13;;;;;;;5.87;3.33;;;3.70;98.00;;;;;;5014483;28;20460;-68
2024/01/18 09:48:42;;;;;;;5.27;3.30;;;3.60;98.00;;;;;;5014743;28;20453;-68
2024/01/18 09:51:13;;;;;;;6.07;3.40;;;3.50;98.00;;;;;;5014720;28;20482;-68
2024/01/18 09:53:48;;;;;;;4.63;3.03;;;3.50;98.00;;;;;;5014368;28;20487;-68
2024/01/18 09:56:22;;;;;;;4.77;2.87;;;3.50;98.00;;;;;;5014474;28;20549;-68
2024/01/18 09:58:51;;;;;;;5.10;2.77;;;3.30;98.00;;;;;;5014204;28;20463;-68
2024/01/18 10:01:20;;;;;;;6.10;3.20;;;3.30;98.00;;;;;;5014246;28;20456;-68
2024/01/18 10:03:49;;;;;;;5.90;3.30;;;3.30;98.00;;;;;;5014180;28;20966;-68
2024/01/18 10:06:17;;;;;;;4.17;2.90;;;3.40;98.00;;;;;;5014177;28;20456;-68
2024/01/18 10:08:46;;;;;;;4.30;2.90;;;3.50;98.00;;;;;;5013949;28;20460;-68
2024/01/18 10:11:13;;;;;;;4.37;2.40;;;3.50;98.00;;;;;;5013812;28;20527;-68
2024/01/18 10:13:54;;;;;;;4.90;2.90;;;3.50;98.00;;;;;;5013797;28;20534;-67
2024/01/18 10:16:28;;;;;;;3.03;2.30;;;3.60;98.00;;;;;;5014004;28;20458;-68
2024/01/18 10:18:56;;;;;;;4.60;3.00;;;3.60;98.00;;;;;;5015220;28;20486;-68
2024/01/18 10:21:24;;;;;;;3.97;2.73;;;3.50;98.00;;;;;;5030477;28;20813;-67
2024/01/18 10:23:55;;;;;;;3.27;2.37;;;3.50;98.00;;;;;;5033470;28;20458;-68
2024/01/18 10:26:23;;;;;;;4.93;2.70;;;3.40;98.00;;;;;;5033693;28;20444;-68
2024/01/18 10:28:50;;;;;;;4.50;2.80;;;3.40;98.00;;;;;;5032384;28;20828;-68
2024/01/18 10:31:17;;;;;;;4.50;2.77;;;3.60;98.00;;;;;;5032972;28;20463;-68
2024/01/18 10:33:46;;;;;;;4.53;2.83;;;3.50;98.00;;;;;;5031980;28;20494;-68
2024/01/18 10:36:14;;;;;;;3.80;2.30;;;3.40;98.00;;;;;;5033222;28;20843;-68
2024/01/18 10:38:42;;;;;;;4.47;2.70;;;3.40;98.00;;;;;;5033214;28;20545;-68
2024/01/18 10:41:10;;;;;;;3.30;2.53;;;3.40;98.00;;;;;;5018063;28;20628;-68
2024/01/18 10:43:38;;;;;;;3.17;2.20;;;3.30;98.00;;;;;;5029596;28;20450;-68
2024/01/18 10:46:06;;;;;;;3.13;1.90;;;3.30;98.00;;;;;;5031697;28;20461;-68
2024/01/18 10:48:33;;;;;;;2.97;1.93;;;3.30;98.00;;;;;;5033142;28;20454;-68
2024/01/18 10:51:01;;;;;;;11.40;1.70;;;3.20;98.00;;;;;;5031771;28;20443;-68
2024/01/18 10:53:32;;;;;;;2.97;1.87;;;3.30;98.00;;;;;;5033033;28;20484;-67
2024/01/18 10:55:59;;;;;;;2.90;2.00;;;3.20;98.00;;;;;;5033127;28;20451;-68
2024/01/18 10:58:28;;;;;;;3.43;2.10;;;3.40;98.00;;;;;;5032929;28;20490;-68
2024/01/18 11:00:56;;;;;;;3.90;2.03;;;3.40;98.00;;;;;;5032905;28;20455;-68
2024/01/18 11:03:25;;;;;;;3.20;1.97;;;3.50;98.00;;;;;;5032981;28;20494;-68
2024/01/18 11:05:53;;;;;;;3.50;2.10;;;3.60;98.00;;;;;;5032938;28;20457;-67
2024/01/18 11:08:20;;;;;;;3.17;2.10;;;3.70;98.00;;;;;;5032785;28;20532;-68
2024/01/18 11:10:49;;;;;;;2.87;2.00;;;3.70;98.00;;;;;;5031445;28;20451;-68
2024/01/18 11:13:17;;;;;;;2.77;1.80;;;3.80;98.00;;;;;;5030928;28;20459;-68
2024/01/18 11:15:47;;;;;;;3.50;2.00;;;3.90;98.00;;;;;;5032587;28;20448;-68
2024/01/18 11:18:15;;;;;;;3.17;2.03;;;3.90;98.00;;;;;;5032787;28;20455;-68
2024/01/18 11:21:08;;;;;;;2.40;1.63;;;3.90;98.00;;;;;;5031266;28;20451;-68
2024/01/18 11:23:37;;;;;;;1.80;1.50;;;3.90;98.00;;;;;;5024432;28;20979;-68
2024/01/18 11:26:07;;;;;;;2.40;1.87;;;3.90;98.00;;;;;;5032559;28;20795;-68
2024/01/18 11:28:36;;;;;;;2.00;1.60;;;4.00;98.00;;;;;;5032488;28;20971;-68
2024/01/18 11:31:05;;;;;;;1.80;1.57;;;4.00;98.00;;;;;;5032260;28;20939;-67
2024/01/18 11:33:33;;;;;;;2.70;2.00;;;4.10;98.00;;;;;;5032280;28;20576;-68
2024/01/18 11:36:00;;;;;;;2.90;1.80;;;4.20;98.00;;;;;;5032293;28;20462;-68
2024/01/18 11:38:31;;;;;;;2.50;1.97;;;4.00;98.00;;;;;;5032091;28;20452;-68
2024/01/18 11:41:04;;;;;;;3.93;2.20;;;3.90;98.00;;;;;;5031852;28;20454;-68
2024/01/18 11:43:54;;;;;;;2.80;1.90;;;3.90;98.00;;;;;;5030704;28;20456;-68
2024/01/18 11:46:35;;;;;;;9.30;2.60;;;3.90;98.00;;;;;;5031224;28;20451;-68
2024/01/18 11:49:03;;;;;;;3.07;2.10;;;3.90;98.00;;;;;;5019995;28;20489;-68
2024/01/18 11:51:30;;;;;;;3.97;2.53;;;3.90;98.00;;;;;;5012112;28;20449;-68
2024/01/18 11:54:00;;;;;;;2.80;1.93;;;3.70;98.00;;;;;;5011027;28;21021;-68
2024/01/18 11:56:28;;;;;;;4.90;2.50;;;3.50;98.00;;;;;;5012209;28;20491;-67
2024/01/18 11:58:58;;;;;;;3.67;2.20;;;3.50;98.00;;;;;;5011868;28;20495;-68
2024/01/18 12:01:25;;;;;;;4.73;2.33;;;3.40;98.00;;;;;;5012096;28;20450;-68
2024/01/18 12:03:53;;;;;;;4.23;2.57;;;3.40;98.00;;;;;;5012126;28;20510;-68
2024/01/18 12:06:23;;;;;;;7.37;2.40;;;3.30;98.00;;;;;;5012043;28;20854;-68
2024/01/18 12:08:50;;;;;;;4.17;2.50;;;3.30;98.00;;;;;;5011760;28;20817;-68
2024/01/18 12:11:17;;;;;;;4.60;2.50;;;3.20;98.00;;;;;;5012074;28;20464;-68
2024/01/18 12:13:44;;;;;;;4.57;2.90;;;3.30;98.00;;;;;;5011834;28;20488;-68
2024/01/18 12:16:13;;;;;;;4.80;2.53;;;3.30;98.00;;;;;;5011949;28;20452;-68
2024/01/18 12:18:41;;;;;;;11.63;3.60;;;3.40;98.00;;;;;;5011732;28;20456;-68
2024/01/18 12:21:09;;;;;;;6.63;3.43;;;3.10;98.00;;;;;;5011863;28;20455;-68
2024/01/18 12:23:36;;;;;;;6.20;3.30;;;3.10;98.00;;;;;;5010558;28;20457;-68
2024/01/18 12:26:04;;;;;;;4.93;3.00;;;3.00;98.00;;;;;;5016732;28;20446;-68
2024/01/18 12:28:32;;;;;;;6.60;3.23;;;3.10;98.00;;;;;;5030363;28;20451;-68
2024/01/18 12:31:01;;;;;;;6.83;3.30;;;3.00;98.00;;;;;;5030014;28;20960;-68
2024/01/18 12:33:31;;;;;;;4.87;3.00;;;2.90;98.00;;;;;;5031637;28;20862;-67
2024/01/18 12:35:59;;;;;;;5.63;3.10;;;2.80;98.00;;;;;;5029888;28;20481;-68
2024/01/18 12:38:28;;;;;;;5.70;3.10;;;2.80;98.00;;;;;;5029561;28;20455;-68
2024/01/18 12:40:55;;;;;;;5.50;2.90;;;2.80;98.00;;;;;;5011692;28;20954;-68
2024/01/18 12:43:23;;;;;;;8.43;3.10;;;2.90;98.00;;;;;;5011552;28;20933;-68
2024/01/18 12:45:52;;;;;;;7.83;2.87;;;2.90;98.00;;;;;;5011460;28;20462;-68
2024/01/18 12:48:22;;;;;;;6.27;3.23;;;2.80;98.00;;;;;;5012169;28;20473;-68
2024/01/18 12:50:50;;;;;;;5.63;2.90;;;2.80;98.00;;;;;;5010890;28;20695;-67
2024/01/18 12:53:17;;;;;;;7.30;3.00;;;2.70;98.00;;;;;;5014070;28;20973;-68
2024/01/18 12:55:45;;;;;;;4.30;2.87;;;2.70;98.00;;;;;;5017722;28;20846;-68
2024/01/18 12:58:13;;;;;;;5.20;2.63;;;2.70;98.00;;;;;;5021956;28;20454;-68